TAR745 EGLL-EGCC
Flight info
| Callsign | TAR745 |
|---|---|
| Flight time | 0h 31m |
| Altitude | 18000 |
| Route | ULTIB T420 ELVOS |
| Aircraft | A320/M-SDE3FGHIRWY/LB1 |
Departure
| Time | 2026-05-05 13:33 |
|---|---|
| Airport | London Heathrow Airport (EGLL) |
Arrival
| Time | 2026-05-05 14:04 |
|---|---|
| Airport | Manchester Airport (EGCC) |
| Time | Latitude | Longitude | Altitude | Speed | Heading |
|---|---|---|---|---|---|
| 2026-05-05 13:05 | 51.46983 | -0.48236 | 85 ft | 0 kts | 91° |
| 2026-05-05 13:23 | 51.46983 | -0.48245 | 85 ft | 4 kts | 91° |
| 2026-05-05 13:24 | 51.46984 | -0.48289 | 86 ft | 4 kts | 98° |
| 2026-05-05 13:24 | 51.46990 | -0.48331 | 87 ft | 4 kts | 118° |
| 2026-05-05 13:24 | 51.47006 | -0.48356 | 90 ft | 2 kts | 178° |
| 2026-05-05 13:24 | 51.47007 | -0.48356 | 87 ft | 0 kts | 179° |
| 2026-05-05 13:26 | 51.47004 | -0.48356 | 90 ft | 3 kts | 179° |
| 2026-05-05 13:27 | 51.46952 | -0.48356 | 85 ft | 12 kts | 179° |
| 2026-05-05 13:27 | 51.46847 | -0.48355 | 85 ft | 16 kts | 179° |
| 2026-05-05 13:27 | 51.46751 | -0.48391 | 87 ft | 13 kts | 239° |
| 2026-05-05 13:27 | 51.46737 | -0.48529 | 85 ft | 12 kts | 264° |
| 2026-05-05 13:28 | 51.46737 | -0.48658 | 85 ft | 11 kts | 265° |
| 2026-05-05 13:28 | 51.46695 | -0.48744 | 88 ft | 10 kts | 198° |
| 2026-05-05 13:28 | 51.46669 | -0.48748 | 87 ft | 0 kts | 181° |
| 2026-05-05 13:29 | 51.46655 | -0.48748 | 86 ft | 5 kts | 181° |
| 2026-05-05 13:29 | 51.46606 | -0.48764 | 88 ft | 0 kts | 195° |
| 2026-05-05 13:31 | 51.46600 | -0.48767 | 88 ft | 2 kts | 195° |
| 2026-05-05 13:31 | 51.46580 | -0.48775 | 86 ft | 6 kts | 194° |
| 2026-05-05 13:31 | 51.46493 | -0.48727 | 86 ft | 21 kts | 120° |
| 2026-05-05 13:32 | 51.46480 | -0.48452 | 87 ft | 29 kts | 92° |
| 2026-05-05 13:32 | 51.46479 | -0.48346 | 87 ft | 0 kts | 88° |
| 2026-05-05 13:33 | 51.46480 | -0.48328 | 87 ft | 10 kts | 88° |
| 2026-05-05 13:33 | 51.46485 | -0.47644 | 83 ft | 113 kts | 89° |
| 2026-05-05 13:33 | 51.46507 | -0.45962 | 227 ft | 176 kts | 88° |
| 2026-05-05 13:33 | 51.46450 | -0.43959 | 1209 ft | 186 kts | 94° |
| 2026-05-05 13:34 | 51.46431 | -0.41890 | 2393 ft | 189 kts | 79° |
| 2026-05-05 13:34 | 51.46774 | -0.39956 | 3178 ft | 207 kts | 64° |
| 2026-05-05 13:34 | 51.47580 | -0.37919 | 3714 ft | 225 kts | 48° |
| 2026-05-05 13:34 | 51.48647 | -0.35977 | 4337 ft | 247 kts | 49° |
| 2026-05-05 13:35 | 51.49789 | -0.33821 | 5292 ft | 256 kts | 50° |
| 2026-05-05 13:35 | 51.50969 | -0.31553 | 5812 ft | 265 kts | 50° |
| 2026-05-05 13:35 | 51.52133 | -0.29263 | 5997 ft | 265 kts | 53° |
| 2026-05-05 13:35 | 51.53015 | -0.26660 | 6011 ft | 266 kts | 69° |
| 2026-05-05 13:36 | 51.53666 | -0.23883 | 6006 ft | 265 kts | 60° |
| 2026-05-05 13:36 | 51.54896 | -0.21700 | 6004 ft | 265 kts | 36° |
| 2026-05-05 13:36 | 51.56548 | -0.20432 | 6005 ft | 265 kts | 13° |
| 2026-05-05 13:36 | 51.58385 | -0.20411 | 6088 ft | 270 kts | 347° |
| 2026-05-05 13:37 | 51.60103 | -0.21743 | 6969 ft | 276 kts | 327° |
| 2026-05-05 13:37 | 51.61720 | -0.23449 | 7658 ft | 279 kts | 327° |
| 2026-05-05 13:37 | 51.63345 | -0.25145 | 7912 ft | 278 kts | 327° |
| 2026-05-05 13:37 | 51.64968 | -0.26834 | 7995 ft | 278 kts | 327° |
| 2026-05-05 13:38 | 51.66598 | -0.28518 | 8051 ft | 281 kts | 329° |
| 2026-05-05 13:38 | 51.68290 | -0.30173 | 8953 ft | 284 kts | 329° |
| 2026-05-05 13:38 | 51.69993 | -0.31798 | 10085 ft | 286 kts | 330° |
| 2026-05-05 13:38 | 51.71764 | -0.33481 | 10645 ft | 307 kts | 330° |
| 2026-05-05 13:39 | 51.73672 | -0.35297 | 11111 ft | 328 kts | 329° |
| 2026-05-05 13:39 | 51.75645 | -0.37186 | 11877 ft | 336 kts | 329° |
| 2026-05-05 13:39 | 51.77670 | -0.39138 | 12747 ft | 342 kts | 329° |
| 2026-05-05 13:39 | 51.79751 | -0.41147 | 13600 ft | 347 kts | 329° |
| 2026-05-05 13:40 | 51.81839 | -0.43169 | 14381 ft | 352 kts | 329° |
| 2026-05-05 13:40 | 51.83948 | -0.45215 | 15145 ft | 356 kts | 329° |
| 2026-05-05 13:40 | 51.86084 | -0.47291 | 15927 ft | 360 kts | 328° |
| 2026-05-05 13:40 | 51.88242 | -0.49395 | 16691 ft | 364 kts | 328° |
| 2026-05-05 13:41 | 51.90425 | -0.51525 | 17460 ft | 369 kts | 328° |
| 2026-05-05 13:41 | 51.92635 | -0.53677 | 17865 ft | 372 kts | 328° |
| 2026-05-05 13:41 | 51.94860 | -0.55847 | 17963 ft | 376 kts | 328° |
| 2026-05-05 13:41 | 51.97111 | -0.58046 | 17969 ft | 378 kts | 328° |
| 2026-05-05 13:42 | 51.99370 | -0.60252 | 17978 ft | 379 kts | 328° |
| 2026-05-05 13:42 | 52.01626 | -0.62454 | 17975 ft | 379 kts | 328° |
| 2026-05-05 13:42 | 52.03888 | -0.64663 | 17978 ft | 379 kts | 328° |
| 2026-05-05 13:42 | 52.06146 | -0.66874 | 17974 ft | 379 kts | 328° |
| 2026-05-05 13:43 | 52.08371 | -0.69064 | 17976 ft | 379 kts | 328° |
| 2026-05-05 13:43 | 52.10652 | -0.71316 | 17978 ft | 379 kts | 328° |
| 2026-05-05 13:43 | 52.12896 | -0.73535 | 17977 ft | 393 kts | 327° |
| 2026-05-05 13:43 | 52.15305 | -0.75918 | 17980 ft | 415 kts | 328° |
| 2026-05-05 13:44 | 52.17831 | -0.78420 | 17975 ft | 431 kts | 328° |
| 2026-05-05 13:44 | 52.20414 | -0.80974 | 17978 ft | 435 kts | 328° |
| 2026-05-05 13:44 | 52.23002 | -0.83530 | 17977 ft | 435 kts | 328° |
| 2026-05-05 13:44 | 52.25595 | -0.86092 | 17977 ft | 436 kts | 328° |
| 2026-05-05 13:45 | 52.28184 | -0.88652 | 17978 ft | 435 kts | 328° |
| 2026-05-05 13:45 | 52.30774 | -0.91218 | 17980 ft | 435 kts | 327° |
| 2026-05-05 13:45 | 52.33362 | -0.93790 | 17987 ft | 435 kts | 327° |
| 2026-05-05 13:45 | 52.35944 | -0.96364 | 17986 ft | 435 kts | 327° |
| 2026-05-05 13:46 | 52.38524 | -0.98945 | 17987 ft | 435 kts | 327° |
| 2026-05-05 13:46 | 52.41108 | -1.01535 | 17984 ft | 435 kts | 327° |
| 2026-05-05 13:46 | 52.43684 | -1.04117 | 17994 ft | 434 kts | 327° |
| 2026-05-05 13:46 | 52.46258 | -1.06701 | 18002 ft | 434 kts | 327° |
| 2026-05-05 13:47 | 52.48833 | -1.09288 | 18009 ft | 434 kts | 327° |
| 2026-05-05 13:47 | 52.51407 | -1.11875 | 18019 ft | 434 kts | 327° |
| 2026-05-05 13:47 | 52.53979 | -1.14460 | 18021 ft | 434 kts | 327° |
| 2026-05-05 13:47 | 52.56553 | -1.17052 | 18025 ft | 433 kts | 327° |
| 2026-05-05 13:48 | 52.59128 | -1.19647 | 18027 ft | 433 kts | 327° |
| 2026-05-05 13:48 | 52.61697 | -1.22236 | 18033 ft | 433 kts | 327° |
| 2026-05-05 13:48 | 52.64267 | -1.24832 | 18034 ft | 433 kts | 327° |
| 2026-05-05 13:48 | 52.66818 | -1.27415 | 18026 ft | 422 kts | 327° |
| 2026-05-05 13:49 | 52.69248 | -1.29874 | 18027 ft | 399 kts | 326° |
| 2026-05-05 13:49 | 52.71555 | -1.32207 | 18028 ft | 380 kts | 326° |
| 2026-05-05 13:49 | 52.73783 | -1.34469 | 18002 ft | 373 kts | 326° |
| 2026-05-05 13:49 | 52.75990 | -1.36722 | 18002 ft | 375 kts | 326° |
| 2026-05-05 13:50 | 52.78235 | -1.39023 | 18003 ft | 382 kts | 326° |
| 2026-05-05 13:50 | 52.80499 | -1.41345 | 18000 ft | 384 kts | 326° |
| 2026-05-05 13:50 | 52.82768 | -1.43674 | 18001 ft | 384 kts | 326° |
| 2026-05-05 13:50 | 52.85011 | -1.45976 | 18003 ft | 384 kts | 326° |
| 2026-05-05 13:51 | 52.87284 | -1.48307 | 18002 ft | 384 kts | 326° |
| 2026-05-05 13:51 | 52.89553 | -1.50633 | 17756 ft | 384 kts | 326° |
| 2026-05-05 13:51 | 52.91828 | -1.52970 | 16807 ft | 381 kts | 326° |
| 2026-05-05 13:51 | 52.94044 | -1.55246 | 15894 ft | 370 kts | 326° |
| 2026-05-05 13:52 | 52.96214 | -1.57475 | 15197 ft | 366 kts | 326° |
| 2026-05-05 13:52 | 52.98378 | -1.59705 | 14705 ft | 365 kts | 326° |
| 2026-05-05 13:52 | 53.00528 | -1.61931 | 14198 ft | 362 kts | 326° |
| 2026-05-05 13:52 | 53.02645 | -1.64129 | 13717 ft | 354 kts | 327° |
| 2026-05-05 13:53 | 53.04679 | -1.66299 | 13556 ft | 340 kts | 322° |
| 2026-05-05 13:53 | 53.06382 | -1.68882 | 13412 ft | 325 kts | 310° |
| 2026-05-05 13:53 | 53.07822 | -1.71688 | 13289 ft | 313 kts | 309° |
| 2026-05-05 13:53 | 53.09213 | -1.74392 | 13151 ft | 303 kts | 309° |
| 2026-05-05 13:54 | 53.10568 | -1.77015 | 12953 ft | 295 kts | 309° |
| 2026-05-05 13:54 | 53.11900 | -1.79592 | 12642 ft | 292 kts | 309° |
| 2026-05-05 13:54 | 53.13220 | -1.82151 | 12308 ft | 291 kts | 309° |
| 2026-05-05 13:54 | 53.14531 | -1.84698 | 11962 ft | 289 kts | 309° |
| 2026-05-05 13:55 | 53.15834 | -1.87233 | 11610 ft | 287 kts | 309° |
| 2026-05-05 13:55 | 53.17129 | -1.89756 | 11260 ft | 286 kts | 309° |
| 2026-05-05 13:55 | 53.18416 | -1.92266 | 10922 ft | 284 kts | 309° |
| 2026-05-05 13:55 | 53.19696 | -1.94758 | 10618 ft | 281 kts | 309° |
| 2026-05-05 13:56 | 53.20943 | -1.97191 | 10496 ft | 271 kts | 309° |
| 2026-05-05 13:56 | 53.22146 | -1.99546 | 10375 ft | 262 kts | 309° |
| 2026-05-05 13:56 | 53.23117 | -2.02036 | 10256 ft | 252 kts | 294° |
| 2026-05-05 13:56 | 53.23635 | -2.04781 | 10075 ft | 246 kts | 279° |
| 2026-05-05 13:57 | 53.23707 | -2.07622 | 9795 ft | 245 kts | 266° |
| 2026-05-05 13:57 | 53.23594 | -2.10455 | 9467 ft | 244 kts | 267° |
| 2026-05-05 13:57 | 53.23489 | -2.13275 | 9131 ft | 243 kts | 268° |
| 2026-05-05 13:57 | 53.23389 | -2.16067 | 8922 ft | 237 kts | 268° |
| 2026-05-05 13:58 | 53.23292 | -2.18768 | 8794 ft | 229 kts | 268° |
| 2026-05-05 13:58 | 53.23198 | -2.21388 | 8656 ft | 223 kts | 268° |
| 2026-05-05 13:58 | 53.23105 | -2.23951 | 8462 ft | 220 kts | 268° |
| 2026-05-05 13:58 | 53.23012 | -2.26491 | 8217 ft | 219 kts | 268° |
| 2026-05-05 13:59 | 53.22824 | -2.31536 | 7730 ft | 219 kts | 268° |
| 2026-05-05 13:59 | 53.22726 | -2.34069 | 7507 ft | 218 kts | 268° |
| 2026-05-05 14:00 | 53.22532 | -2.39073 | 6943 ft | 220 kts | 268° |
| 2026-05-05 14:00 | 53.22467 | -2.40768 | 6640 ft | 215 kts | 268° |
| 2026-05-05 14:00 | 53.22396 | -2.44041 | 5852 ft | 211 kts | 280° |
| 2026-05-05 14:00 | 53.23048 | -2.46126 | 5281 ft | 203 kts | 320° |
| 2026-05-05 14:01 | 53.24295 | -2.47029 | 4732 ft | 195 kts | 356° |
| 2026-05-05 14:01 | 53.25549 | -2.46520 | 4209 ft | 184 kts | 31° |
| 2026-05-05 14:01 | 53.26386 | -2.45054 | 4037 ft | 161 kts | 48° |
| 2026-05-05 14:01 | 53.27052 | -2.43701 | 3909 ft | 149 kts | 47° |
| 2026-05-05 14:02 | 53.27756 | -2.42326 | 3365 ft | 161 kts | 46° |
| 2026-05-05 14:02 | 53.28511 | -2.40907 | 2831 ft | 166 kts | 45° |
| 2026-05-05 14:02 | 53.29219 | -2.39403 | 2559 ft | 159 kts | 56° |
| 2026-05-05 14:02 | 53.29811 | -2.37788 | 2348 ft | 175 kts | 53° |
| 2026-05-05 14:03 | 53.30596 | -2.35997 | 1650 ft | 198 kts | 45° |
| 2026-05-05 14:03 | 53.31547 | -2.34370 | 1029 ft | 189 kts | 41° |
| 2026-05-05 14:03 | 53.32391 | -2.32782 | 605 ft | 182 kts | 47° |
| 2026-05-05 14:03 | 53.33145 | -2.31176 | 331 ft | 169 kts | 50° |
| 2026-05-05 14:04 | 53.33757 | -2.29917 | 235 ft | 74 kts | 51° |
| 2026-05-05 14:04 | 53.34050 | -2.29310 | 234 ft | 61 kts | 52° |
| 2026-05-05 14:04 | 53.34309 | -2.28811 | 231 ft | 50 kts | 51° |
| 2026-05-05 14:04 | 53.34496 | -2.28546 | 233 ft | 27 kts | 23° |
| 2026-05-05 14:05 | 53.34564 | -2.28501 | 233 ft | 6 kts | 21° |
| 2026-05-05 14:05 | 53.34568 | -2.28498 | 233 ft | 0 kts | 21° |
| 2026-05-05 14:06 | 53.34588 | -2.28485 | 233 ft | 8 kts | 23° |
| 2026-05-05 14:06 | 53.34681 | -2.28422 | 235 ft | 19 kts | 24° |
| 2026-05-05 14:07 | 53.34781 | -2.28260 | 233 ft | 21 kts | 50° |
| 2026-05-05 14:07 | 53.34880 | -2.28058 | 233 ft | 24 kts | 52° |
| 2026-05-05 14:07 | 53.34987 | -2.27830 | 233 ft | 26 kts | 51° |
| 2026-05-05 14:07 | 53.35104 | -2.27592 | 233 ft | 27 kts | 51° |
| 2026-05-05 14:08 | 53.35227 | -2.27338 | 233 ft | 29 kts | 51° |
| 2026-05-05 14:08 | 53.35352 | -2.27073 | 233 ft | 30 kts | 51° |
| 2026-05-05 14:08 | 53.35459 | -2.26900 | 235 ft | 12 kts | 12° |
| 2026-05-05 14:08 | 53.35485 | -2.26907 | 236 ft | 0 kts | 336° |
| 2026-05-05 14:09 | 53.35522 | -2.26948 | 235 ft | 16 kts | 321° |
| 2026-05-05 14:09 | 53.35616 | -2.27077 | 241 ft | 15 kts | 321° |
| 2026-05-05 14:10 | 53.35670 | -2.27148 | 235 ft | 15 kts | 322° |
| 2026-05-05 14:10 | 53.35703 | -2.27193 | 233 ft | 2 kts | 322° |
| 2026-05-05 14:10 | 53.35705 | -2.27195 | 233 ft | 0 kts | 322° |
| 2026-05-05 14:10 | 53.35708 | -2.27199 | 233 ft | 1 kts | 322° |
| 2026-05-05 14:11 | 53.35713 | -2.27206 | 233 ft | 1 kts | 322° |
| 2026-05-05 14:11 | 53.35720 | -2.27215 | 233 ft | 1 kts | 322° |
| 2026-05-05 14:11 | 53.35728 | -2.27226 | 233 ft | 2 kts | 322° |
| 2026-05-05 14:11 | 53.35736 | -2.27237 | 233 ft | 2 kts | 322° |
| 2026-05-05 14:12 | 53.35745 | -2.27248 | 235 ft | 2 kts | 322° |
| 2026-05-05 14:12 | 53.35753 | -2.27259 | 233 ft | 1 kts | 322° |
| 2026-05-05 14:12 | 53.35763 | -2.27272 | 233 ft | 5 kts | 322° |
| 2026-05-05 14:12 | 53.35824 | -2.27246 | 233 ft | 11 kts | 47° |
| 2026-05-05 14:13 | 53.35891 | -2.27225 | 233 ft | 10 kts | 350° |
| 2026-05-05 14:13 | 53.35949 | -2.27221 | 233 ft | 7 kts | 52° |
| 2026-05-05 14:13 | 53.35951 | -2.27190 | 233 ft | 1 kts | 88° |
| 2026-05-05 14:13 | 53.35951 | -2.27172 | 233 ft | 2 kts | 89° |
| 2026-05-05 14:14 | 53.35952 | -2.27154 | 233 ft | 1 kts | 89° |
| 2026-05-05 14:14 | 53.35951 | -2.27139 | 233 ft | 1 kts | 92° |
| 2026-05-05 14:14 | 53.35951 | -2.27130 | 233 ft | 0 kts | 92° |